Time;durP1;ratioP1;P1;durP2;ratioP2;P2;SDS_P1;SDS_P2;PMS_P1;PMS_P2;Temp;Humidity;BMP_temperature;BMP_pressure;BME280_temperature;BME280_humidity;BME280_pressure;Samples;Min_cycle;Max_cycle;Signal;HPM_P1;HPM_P2
2023/10/28 00:01:27;;;;;;;;;;;13.00;65.50;;;8.42;99.50;94264.97;5011424;28;19978;-47
2023/10/28 00:03:54;;;;;;;;;;;12.90;65.30;;;8.33;100.00;94272.75;5011036;28;19917;-48
2023/10/28 00:06:19;;;;;;;;;;;12.90;65.30;;;8.23;100.00;94272.84;5010650;28;19909;-47
2023/10/28 00:08:45;;;;;;;;;;;12.80;65.30;;;8.15;100.00;94268.19;5011117;28;19909;-46
2023/10/28 00:11:11;;;;;;;;;;;12.70;65.20;;;8.03;100.00;94263.25;5009945;28;19913;-46
2023/10/28 00:13:37;;;;;;;;;;;12.60;65.20;;;7.99;100.00;94267.53;5010700;28;19909;-46
2023/10/28 00:16:04;;;;;;;;;;;12.60;65.40;;;7.99;100.00;94274.69;5010933;28;19913;-46
2023/10/28 00:18:30;;;;;;;;;;;12.50;65.50;;;7.96;100.00;94277.88;5010535;28;19909;-45
2023/10/28 00:20:56;;;;;;;;;;;12.50;65.60;;;7.93;100.00;94273.97;5005386;28;20399;-45
2023/10/28 00:23:22;;;;;;;;;;;12.40;65.80;;;7.89;100.00;94288.81;5005137;28;20299;-46
2023/10/28 00:25:48;;;;;;;;;;;12.40;65.90;;;7.88;100.00;94281.94;5003797;28;19917;-46
2023/10/28 00:28:14;;;;;;;;;;;12.40;66.00;;;7.89;100.00;94283.53;5010799;28;20275;-52
2023/10/28 00:30:40;;;;;;;;;;;12.40;66.00;;;7.88;100.00;94281.94;5009685;28;20007;-46
2023/10/28 00:33:06;;;;;;;;;;;12.30;66.00;;;7.89;100.00;94280.88;5010929;28;19955;-48
2023/10/28 00:35:32;;;;;;;;;;;12.30;66.20;;;7.90;100.00;94279.81;5010637;28;20318;-48
2023/10/28 00:37:58;;;;;;;;;;;12.30;66.20;;;7.92;100.00;94276.88;5000072;28;19963;-48
2023/10/28 00:40:31;;;;;;;;;;;12.40;66.20;;;7.88;100.00;94287.25;5009965;28;19913;-46
2023/10/28 00:43:00;;;;;;;;;;;12.40;66.30;;;7.89;100.00;94275.56;5009034;28;19984;-46
2023/10/28 00:45:27;;;;;;;;;;;12.40;66.30;;;7.95;100.00;94282.41;5010445;28;20352;-46
2023/10/28 00:47:54;;;;;;;;;;;12.40;66.40;;;7.99;100.00;94286.09;5010063;28;20338;-46
2023/10/28 00:50:24;;;;;;;;;;;12.40;66.40;;;8.02;100.00;94277.59;5008172;28;19921;-50
2023/10/28 00:52:54;;;;;;;;;;;12.50;66.50;;;8.10;100.00;94282.25;4997778;28;19910;-51
2023/10/28 00:55:24;;;;;;;;;;;12.50;66.60;;;8.17;100.00;94287.22;5002569;28;19916;-46
2023/10/28 00:57:51;;;;;;;;;;;12.50;66.50;;;8.23;100.00;94287.97;5025754;28;19912;-47
2023/10/28 01:00:23;;;;;;;;;;;12.60;66.60;;;8.23;100.00;94295.94;5006450;28;19915;-46
2023/10/28 01:02:49;;;;;;;;;;;12.60;66.40;;;8.25;100.00;94291.16;5010726;28;19940;-46
2023/10/28 01:05:16;;;;;;;;;;;12.60;66.40;;;8.26;100.00;94298.81;5009495;28;19979;-45
2023/10/28 01:07:47;;;;;;;;;;;12.60;66.40;;;8.30;100.00;94293.75;5005546;28;19913;-46
2023/10/28 01:10:26;;;;;;;;;;;12.70;66.40;;;8.33;100.00;94288.66;5007909;28;20012;-46
2023/10/28 01:12:52;;;;;;;;;;;12.70;66.40;;;8.39;100.00;94301.91;5006752;28;19909;-45
2023/10/28 01:15:18;;;;;;;;;;;12.80;66.40;;;8.43;100.00;94303.75;5010113;28;19916;-44
2023/10/28 01:17:43;;;;;;;;;;;12.80;66.40;;;8.48;100.00;94300.22;5008087;28;19935;-45
2023/10/28 01:20:10;;;;;;;;;;;12.80;66.30;;;8.49;100.00;94289.34;5007718;28;20530;-48
2023/10/28 01:22:37;;;;;;;;;;;12.90;66.30;;;8.50;100.00;94282.94;5005382;28;20379;-50
2023/10/28 01:25:03;;;;;;;;;;;12.90;66.20;;;8.52;99.42;94274.69;5011992;28;20004;-49
2023/10/28 01:27:30;;;;;;;;;;;12.90;66.00;;;8.48;99.63;94276.34;5014525;28;20300;-44
2023/10/28 01:29:55;;;;;;;;;;;12.90;65.90;;;8.40;100.00;94280.41;5012743;28;19972;-47
2023/10/28 01:32:21;;;;;;;;;;;12.80;65.70;;;8.33;99.89;94261.34;5014171;28;20346;-46
2023/10/28 01:34:52;;;;;;;;;;;12.80;65.70;;;8.34;100.00;94268.25;5013123;28;19940;-44
2023/10/28 01:37:20;;;;;;;;;;;12.80;65.70;;;8.29;100.00;94261.13;5013740;28;20423;-44
2023/10/28 01:39:48;;;;;;;;;;;12.70;65.60;;;8.22;100.00;94257.22;5013621;28;20352;-44
2023/10/28 01:42:19;;;;;;;;;;;12.70;65.60;;;8.18;100.00;94256.19;5013473;28;19932;-44
2023/10/28 01:44:45;;;;;;;;;;;12.70;65.60;;;8.16;100.00;94258.34;5013759;28;19913;-47
2023/10/28 01:47:13;;;;;;;;;;;12.60;65.70;;;8.11;100.00;94249.34;5012984;28;20054;-44
2023/10/28 01:49:40;;;;;;;;;;;12.60;65.70;;;8.13;100.00;94257.03;4992836;28;19924;-52
2023/10/28 01:52:10;;;;;;;;;;;12.60;65.90;;;8.15;100.00;94254.91;5013945;28;19909;-45
2023/10/28 01:54:36;;;;;;;;;;;12.60;66.10;;;8.15;100.00;94254.91;5012421;28;19910;-48
2023/10/28 01:57:09;;;;;;;;;;;12.60;66.10;;;8.17;100.00;94246.66;5007703;28;19948;-44
2023/10/28 01:59:37;;;;;;;;;;;12.60;66.10;;;8.20;100.00;94251.41;5005843;28;19962;-45
2023/10/28 02:02:04;;;;;;;;;;;12.60;66.30;;;8.24;100.00;94247.09;5012453;28;19924;-50
2023/10/28 02:04:31;;;;;;;;;;;12.60;66.30;;;8.26;100.00;94243.09;5013670;28;19917;-47
2023/10/28 02:06:58;;;;;;;;;;;12.70;67.10;;;8.26;100.00;94240.47;5012893;28;19909;-47
2023/10/28 02:09:25;;;;;;;;;;;12.60;66.20;;;8.28;100.00;94246.28;5013420;28;20276;-45
2023/10/28 02:11:53;;;;;;;;;;;12.70;66.20;;;8.27;100.00;94257.97;5007374;28;19909;-44
2023/10/28 02:14:22;;;;;;;;;;;12.70;66.20;;;8.24;100.00;94245.28;5012479;28;20364;-47
2023/10/28 02:16:49;;;;;;;;;;;12.60;66.10;;;8.21;100.00;94251.13;5012503;28;19909;-47
2023/10/28 02:19:17;;;;;;;;;;;12.60;66.10;;;8.19;100.00;94247.97;5012020;28;20376;-45
2023/10/28 02:21:44;;;;;;;;;;;12.60;66.20;;;8.17;100.00;94252.75;5010263;28;20391;-48
2023/10/28 02:24:10;;;;;;;;;;;12.60;67.00;;;8.14;100.00;94253.31;5009721;28;19912;-50
2023/10/28 02:26:36;;;;;;;;;;;12.60;66.20;;;8.15;100.00;94254.91;5006861;28;19916;-48
2023/10/28 02:29:01;;;;;;;;;;;12.60;66.30;;;8.16;100.00;94253.84;5011366;28;19913;-43
2023/10/28 02:31:28;;;;;;;;;;;12.60;66.30;;;8.19;100.00;94247.19;5007245;28;19909;-45
2023/10/28 02:33:54;;;;;;;;;;;12.60;66.30;;;8.17;100.00;94254.63;5013127;28;19912;-48
2023/10/28 02:36:20;;;;;;;;;;;12.60;66.30;;;8.17;100.00;94258.06;5011939;28;19909;-44
2023/10/28 02:38:46;;;;;;;;;;;12.60;66.20;;;8.21;100.00;94250.31;5012839;28;19909;-44
2023/10/28 02:41:13;;;;;;;;;;;12.70;67.00;;;8.21;100.00;94252.97;5011497;28;19909;-46
2023/10/28 02:43:39;;;;;;;;;;;12.70;66.30;;;8.22;100.00;94251.94;5012899;28;19916;-45
2023/10/28 02:46:06;;;;;;;;;;;12.70;66.30;;;8.19;100.00;94249.84;5012991;28;19932;-46
2023/10/28 02:48:33;;;;;;;;;;;12.70;66.30;;;8.19;100.00;94244.53;5011891;28;20333;-45
2023/10/28 02:51:06;;;;;;;;;;;12.70;66.30;;;8.18;100.00;94249.06;5004970;28;19917;-44
2023/10/28 02:53:33;;;;;;;;;;;12.70;66.30;;;8.17;100.00;94246.66;5000312;28;19943;-47
2023/10/28 02:56:06;;;;;;;;;;;12.60;66.30;;;8.13;100.00;94251.75;5002286;28;19935;-44
2023/10/28 02:58:31;;;;;;;;;;;12.60;66.20;;;8.13;100.00;94248.31;5012509;28;19916;-50
2023/10/28 03:01:09;;;;;;;;;;;12.60;66.20;;;8.11;100.00;94243.25;5011473;28;19909;-46
2023/10/28 03:03:34;;;;;;;;;;;12.60;66.20;;;8.09;100.00;94251.53;5012466;28;19955;-48
2023/10/28 03:06:00;;;;;;;;;;;12.50;66.10;;;8.07;100.00;94248.34;5009387;28;19948;-48
2023/10/28 03:08:26;;;;;;;;;;;12.50;66.20;;;8.00;100.00;94245.25;5012222;28;19909;-49
2023/10/28 03:10:52;;;;;;;;;;;12.50;66.20;;;7.94;100.00;94251.66;5010844;28;19908;-46
2023/10/28 03:13:18;;;;;;;;;;;12.40;66.10;;;7.95;100.00;94249.78;5012213;28;19913;-43
2023/10/28 03:15:46;;;;;;;;;;;12.40;66.10;;;7.92;100.00;94253.78;5012008;28;19909;-46
2023/10/28 03:18:13;;;;;;;;;;;12.40;66.10;;;7.88;100.00;94250.13;5009568;28;20371;-45
2023/10/28 03:20:39;;;;;;;;;;;12.30;66.20;;;7.86;100.00;94262.88;5004913;28;19909;-47
2023/10/28 03:23:05;;;;;;;;;;;12.30;66.20;;;7.86;100.00;94270.81;5011083;28;20804;-44
2023/10/28 03:25:32;;;;;;;;;;;12.30;66.30;;;7.83;100.00;94269.53;5006453;28;19964;-44
2023/10/28 03:28:02;;;;;;;;;;;12.20;66.20;;;7.82;100.00;94277.75;4997527;28;20274;-45
2023/10/28 03:30:28;;;;;;;;;;;12.30;66.30;;;7.78;100.00;94268.78;5003125;28;19913;-46
2023/10/28 03:32:53;;;;;;;;;;;12.20;66.10;;;7.66;100.00;94269.13;4998636;28;20720;-44
2023/10/28 03:35:19;;;;;;;;;;;12.20;66.10;;;7.52;100.00;94271.66;5002958;28;19909;-45
2023/10/28 03:37:45;;;;;;;;;;;12.10;65.90;;;7.46;100.00;94270.09;5003278;28;20020;-44
2023/10/28 03:40:12;;;;;;;;;;;12.10;65.90;;;7.37;100.00;94269.88;5000521;28;19929;-46
2023/10/28 03:42:37;;;;;;;;;;;12.00;66.60;;;7.31;100.00;94265.69;5002296;28;19913;-44
2023/10/28 03:45:07;;;;;;;;;;;12.00;65.80;;;7.27;100.00;94267.31;5003876;28;20291;-50
2023/10/28 03:47:34;;;;;;;;;;;11.90;65.80;;;7.22;100.00;94262.03;4998767;28;19909;-49
2023/10/28 03:50:00;;;;;;;;;;;11.90;65.80;;;7.16;100.00;94273.75;4999138;28;19970;-46
2023/10/28 03:52:27;;;;;;;;;;;11.80;65.80;;;7.09;100.00;94271.41;5005827;28;19909;-46
2023/10/28 03:54:53;;;;;;;;;;;11.80;65.90;;;7.06;100.00;94271.94;4996785;28;19913;-44
2023/10/28 03:57:19;;;;;;;;;;;11.70;66.30;;;7.10;100.00;94275.63;5006632;28;19915;-48
2023/10/28 03:59:46;;;;;;;;;;;11.70;66.20;;;7.12;100.00;94270.06;5002588;28;20242;-45
2023/10/28 04:02:12;;;;;;;;;;;11.70;66.30;;;7.13;100.00;94274.28;4995486;28;19909;-44
2023/10/28 04:04:38;;;;;;;;;;;11.70;66.30;;;7.16;100.00;94276.38;5006314;28;20821;-49
2023/10/28 04:07:04;;;;;;;;;;;11.70;66.40;;;7.18;100.00;94272.41;4995115;28;19963;-52
2023/10/28 04:09:30;;;;;;;;;;;11.70;66.50;;;7.17;100.00;94262.84;5003117;28;19917;-47
2023/10/28 04:11:56;;;;;;;;;;;11.70;66.40;;;7.14;100.00;94268.69;4999040;28;19921;-46
2023/10/28 04:14:23;;;;;;;;;;;11.70;66.30;;;7.05;100.00;94264.25;5004930;28;19909;-44
2023/10/28 04:16:48;;;;;;;;;;;11.60;66.20;;;6.95;100.00;94276.50;4999695;28;20372;-44
2023/10/28 04:19:14;;;;;;;;;;;11.60;66.10;;;6.86;100.00;94270.22;5004516;28;19916;-45
2023/10/28 04:21:40;;;;;;;;;;;11.50;65.90;;;6.76;100.00;94269.44;5007389;28;19909;-45
2023/10/28 04:24:07;;;;;;;;;;;11.40;65.80;;;6.65;100.00;94274.78;5006859;28;20265;-44
2023/10/28 04:26:33;;;;;;;;;;;11.40;65.80;;;6.51;100.00;94271.13;5004866;28;19914;-44
2023/10/28 04:29:00;;;;;;;;;;;11.30;65.80;;;6.38;100.00;94279.66;4999734;28;19971;-44
2023/10/28 04:31:29;;;;;;;;;;;11.30;65.90;;;6.37;100.00;94275.44;5005999;28;20013;-45
2023/10/28 04:33:55;;;;;;;;;;;11.20;66.00;;;6.48;100.00;94271.69;4996292;28;19909;-44
2023/10/28 04:36:22;;;;;;;;;;;11.20;66.30;;;6.50;100.00;94266.91;5001196;28;19910;-45
2023/10/28 04:38:48;;;;;;;;;;;11.20;66.50;;;6.49;100.00;94275.94;5005667;28;19916;-45
2023/10/28 04:41:14;;;;;;;;;;;11.10;66.30;;;6.53;100.00;94278.81;4995355;28;20287;-43
2023/10/28 04:43:40;;;;;;;;;;;11.10;66.40;;;6.53;100.00;94274.31;5002752;28;19909;-47
2023/10/28 04:46:06;;;;;;;;;;;11.10;66.30;;;6.51;100.00;94268.50;4995917;28;19909;-44
2023/10/28 04:48:32;;;;;;;;;;;11.10;66.40;;;6.49;100.00;94273.28;5002825;28;19937;-48
2023/10/28 04:50:58;;;;;;;;;;;11.10;66.40;;;6.45;100.00;94278.28;5003642;28;19917;-50
2023/10/28 04:53:24;;;;;;;;;;;11.10;66.30;;;6.42;100.00;94272.75;5000352;28;20291;-47
2023/10/28 04:55:50;;;;;;;;;;;11.10;66.30;;;6.43;100.00;94277.78;5000017;28;19913;-47
2023/10/28 04:58:17;;;;;;;;;;;11.10;66.40;;;6.41;100.00;94271.19;4999918;28;19955;-51
2023/10/28 05:00:45;;;;;;;;;;;11.10;66.40;;;6.38;100.00;94275.16;5007732;28;20020;-45
2023/10/28 05:03:12;;;;;;;;;;;11.00;66.30;;;6.37;100.00;94275.44;5008185;28;20286;-45
2023/10/28 05:05:38;;;;;;;;;;;11.00;66.40;;;6.38;100.00;94275.16;4998145;28;19920;-47
2023/10/28 05:08:04;;;;;;;;;;;11.00;66.50;;;6.39;100.00;94263.53;5000021;28;19909;-54
2023/10/28 05:10:31;;;;;;;;;;;11.00;66.50;;;6.41;100.00;94265.88;5005499;28;19917;-44
2023/10/28 05:12:57;;;;;;;;;;;11.00;66.50;;;6.40;100.00;94265.09;5004535;28;20261;-44
2023/10/28 05:15:22;;;;;;;;;;;11.00;66.50;;;6.42;100.00;94265.59;5004379;28;21159;-44
2023/10/28 05:17:48;;;;;;;;;;;11.00;66.60;;;6.43;100.00;94263.78;5005298;28;19963;-45
2023/10/28 05:20:14;;;;;;;;;;;11.10;66.60;;;6.38;100.00;94269.84;5013901;28;20376;-45
2023/10/28 05:22:41;;;;;;;;;;;11.10;66.60;;;6.36;100.00;94257.97;5014237;28;19909;-46
2023/10/28 05:25:08;;;;;;;;;;;11.00;66.40;;;6.36;100.00;94255.31;5013337;28;20501;-44
2023/10/28 05:27:35;;;;;;;;;;;11.10;66.50;;;6.32;100.00;94260.34;5014134;28;20282;-50
2023/10/28 05:30:04;;;;;;;;;;;11.00;66.40;;;6.28;100.00;94251.38;5004162;28;19910;-44
2023/10/28 05:32:30;;;;;;;;;;;11.00;66.40;;;6.24;100.00;94250.34;5013801;28;19920;-47
2023/10/28 05:34:57;;;;;;;;;;;11.00;66.30;;;6.20;100.00;94258.00;5013362;28;19909;-48
2023/10/28 05:37:23;;;;;;;;;;;10.90;66.30;;;6.18;100.00;94262.78;5014118;28;20595;-44
2023/10/28 05:39:49;;;;;;;;;;;10.90;66.40;;;6.18;100.00;94270.72;5013629;28;19916;-45
2023/10/28 05:42:15;;;;;;;;;;;10.90;66.40;;;6.14;100.00;94274.97;5013003;28;20287;-43
2023/10/28 05:44:42;;;;;;;;;;;10.80;66.40;;;6.09;100.00;94268.91;5014084;28;19940;-46
2023/10/28 05:47:08;;;;;;;;;;;10.90;66.50;;;6.03;100.00;94271.53;5012011;28;19935;-45
2023/10/28 05:49:34;;;;;;;;;;;10.80;66.60;;;6.07;100.00;94287.66;5006567;28;20769;-50
2023/10/28 05:52:01;;;;;;;;;;;10.90;66.70;;;6.05;100.00;94283.69;5013854;28;19913;-44
2023/10/28 05:54:26;;;;;;;;;;;10.90;66.70;;;6.09;100.00;94293.47;5003190;28;19916;-46
2023/10/28 05:56:54;;;;;;;;;;;10.90;66.70;;;6.11;100.00;94303.78;5002151;28;19913;-45
2023/10/28 05:59:20;;;;;;;;;;;10.90;66.70;;;6.15;100.00;94304.84;5006239;28;19944;-45
2023/10/28 06:01:46;;;;;;;;;;;10.90;66.70;;;6.24;100.00;94309.31;5013377;28;19975;-43
2023/10/28 06:04:12;;;;;;;;;;;11.00;67.00;;;6.33;100.00;94324.63;5013081;28;20003;-45
2023/10/28 06:06:38;;;;;;;;;;;11.00;67.00;;;6.49;100.00;94326.19;5001998;28;20410;-43
2023/10/28 06:09:04;;;;;;;;;;;11.10;67.50;;;6.64;100.00;94323.50;5010173;28;20007;-48
2023/10/28 06:11:29;;;;;;;;;;;11.20;67.60;;;6.73;100.00;94313.13;5006237;28;19913;-47
2023/10/28 06:13:55;;;;;;;;;;;11.30;67.60;;;6.80;100.00;94320.78;5013563;28;19913;-47
2023/10/28 06:16:21;;;;;;;;;;;11.40;67.50;;;6.91;100.00;94319.69;5010860;28;19936;-45
2023/10/28 06:18:48;;;;;;;;;;;11.40;67.70;;;7.01;100.00;94316.97;5006845;28;19944;-43
2023/10/28 06:21:14;;;;;;;;;;;11.50;67.70;;;7.12;100.00;94317.72;5002862;28;19909;-47
2023/10/28 06:23:40;;;;;;;;;;;11.60;67.60;;;7.18;100.00;94317.44;5012161;28;19917;-47
2023/10/28 06:26:10;;;;;;;;;;;11.70;67.60;;;7.22;100.00;94322.97;5000683;28;19928;-47
2023/10/28 06:28:37;;;;;;;;;;;11.80;67.50;;;7.25;100.00;94330.38;5009477;28;19916;-44
2023/10/28 06:31:03;;;;;;;;;;;11.90;67.40;;;7.24;100.00;94331.44;5004391;28;20313;-45
2023/10/28 06:33:29;;;;;;;;;;;11.90;67.20;;;7.28;100.00;94329.03;4997263;28;20011;-44
2023/10/28 06:35:55;;;;;;;;;;;12.00;67.10;;;7.38;100.00;94334.25;4992209;28;19917;-44
2023/10/28 06:38:25;;;;;;;;;;;12.10;67.10;;;7.47;100.00;94340.56;5004861;28;19913;-44
2023/10/28 06:40:51;;;;;;;;;;;12.10;67.00;;;7.51;100.00;94343.44;4998750;28;19924;-47
2023/10/28 06:43:17;;;;;;;;;;;12.20;66.90;;;7.53;100.00;94342.13;5008024;28;19943;-45
2023/10/28 06:45:44;;;;;;;;;;;12.30;66.80;;;7.60;100.00;94337.28;4997541;28;20353;-44
2023/10/28 06:48:10;;;;;;;;;;;12.30;66.70;;;7.64;100.00;94334.88;5005169;28;20372;-49
2023/10/28 06:50:36;;;;;;;;;;;12.40;66.70;;;7.61;100.00;94330.13;5011014;23;19922;-52
2023/10/28 06:53:02;;;;;;;;;;;12.40;66.50;;;7.67;100.00;94326.38;4990203;28;19936;-52
2023/10/28 06:55:28;;;;;;;;;;;12.50;66.50;;;7.73;100.00;94324.47;4985628;28;19909;-51
2023/10/28 06:57:55;;;;;;;;;;;12.60;66.50;;;7.76;100.00;94332.66;4990765;28;19913;-52
2023/10/28 07:00:27;;;;;;;;;;;12.60;66.40;;;7.83;100.00;94332.34;4993675;28;19948;-55
2023/10/28 07:02:54;;;;;;;;;;;12.70;66.40;;;7.90;100.00;94330.19;5006329;28;19909;-51
2023/10/28 07:05:20;;;;;;;;;;;12.80;66.20;;;7.91;100.00;94318.50;4999957;28;19959;-53
2023/10/28 07:07:46;;;;;;;;;;;12.80;66.10;;;7.93;100.00;94326.16;5005105;28;19909;-52
2023/10/28 07:10:15;;;;;;;;;;;12.80;65.90;;;7.92;100.00;94330.69;5009604;28;20031;-51
2023/10/28 07:12:41;;;;;;;;;;;12.90;65.80;;;7.92;100.00;94336.00;5011490;28;19909;-54
2023/10/28 07:15:11;;;;;;;;;;;12.90;66.00;;;8.04;100.00;94331.13;5012011;28;20419;-55
2023/10/28 07:17:39;;;;;;;;;;;13.00;65.60;;;8.27;100.00;94334.91;5011528;28;19909;-53
2023/10/28 07:20:07;;;;;;;;;;;13.30;65.50;;;8.43;100.00;94332.13;5011673;28;19915;-49
2023/10/28 07:22:34;;;;;;;;;;;13.60;65.50;;;8.57;100.00;94341.00;5000546;28;20003;-51
2023/10/28 07:25:00;;;;;;;;;;;13.90;65.40;;;8.92;100.00;94336.38;5009180;28;20008;-49
2023/10/28 07:27:27;;;;;;;;;;;14.20;65.10;;;9.30;99.19;94336.41;5012010;28;20019;-51
2023/10/28 07:29:53;;;;;;;;;;;14.50;64.90;;;9.52;97.11;94352.59;5009306;28;19909;-55
2023/10/28 07:32:19;;;;;;;;;;;14.70;64.80;;;9.56;95.37;94345.63;5011514;28;20000;-53
2023/10/28 07:34:44;;;;;;;;;;;14.70;64.70;;;9.56;94.76;94342.97;5011907;28;20377;-52
2023/10/28 07:37:10;;;;;;;;;;;14.70;64.50;;;9.57;94.10;94351.75;5011177;28;19967;-51
2023/10/28 07:39:38;;;;;;;;;;;14.70;64.50;;;9.56;94.33;94356.28;5011809;28;20383;-49
2023/10/28 07:42:04;;;;;;;;;;;14.80;64.30;;;9.61;94.59;94355.41;5010734;28;19963;-51
2023/10/28 07:44:30;;;;;;;;;;;14.80;64.10;;;9.61;93.20;94350.88;5011818;28;20383;-56
2023/10/28 07:46:56;;;;;;;;;;;14.80;64.00;;;9.63;92.72;94345.28;5010865;28;19909;-54
2023/10/28 07:49:22;;;;;;;;;;;14.90;63.90;;;9.65;91.79;94346.56;5008752;28;20273;-54
2023/10/28 07:51:48;;;;;;;;;;;14.90;63.70;;;9.75;92.36;94347.50;5006408;28;20388;-53
2023/10/28 07:54:14;;;;;;;;;;;15.10;64.40;;;9.95;90.75;94350.63;5010368;28;19916;-56
2023/10/28 07:56:42;;;;;;;;;;;15.40;63.40;;;10.33;90.57;94347.13;5011687;28;19916;-55
2023/10/28 07:59:11;;;;;;;;;;;15.70;63.20;;;10.55;87.28;94357.91;5009743;28;20421;-57
2023/10/28 08:01:39;;;;;;;;;;;16.10;63.00;;;10.82;85.06;94359.81;5011579;28;19963;-55
2023/10/28 08:04:06;;;;;;;;;;;16.40;62.70;;;11.23;82.43;94363.56;5011232;28;19934;-56
2023/10/28 08:06:32;;;;;;;;;;;16.90;62.60;;;11.52;80.42;94366.69;5010505;28;20011;-56
2023/10/28 08:08:58;;;;;;;;;;;17.20;62.20;;;11.91;79.10;94376.00;5011190;28;20004;-53
2023/10/28 08:11:24;;;;;;;;;;;17.60;62.00;;;12.22;76.61;94369.94;5010338;28;19959;-51
2023/10/28 08:13:54;;;;;;;;;;;17.90;61.70;;;12.60;76.32;94367.69;5011111;28;19909;-50
2023/10/28 08:16:21;;;;;;;;;;;18.20;61.40;;;12.90;71.85;94379.44;5010903;28;19909;-52
2023/10/28 08:18:49;;;;;;;;;;;18.60;61.10;;;13.19;69.98;94373.59;5010083;28;20270;-50
2023/10/28 08:21:16;;;;;;;;;;;18.90;60.60;;;13.40;71.32;94381.06;5011233;28;19909;-51
2023/10/28 08:23:43;;;;;;;;;;;19.20;60.30;;;13.67;70.21;94385.38;5010161;28;20423;-58
2023/10/28 08:26:11;;;;;;;;;;;19.60;60.10;;;13.78;69.91;94385.84;5010912;28;20321;-57
2023/10/28 08:28:38;;;;;;;;;;;19.90;59.80;;;13.99;67.19;94392.16;5010533;28;19913;-58
2023/10/28 08:31:11;;;;;;;;;;;20.20;59.50;;;14.28;65.32;94396.88;5009712;28;20018;-53
2023/10/28 08:33:41;;;;;;;;;;;20.60;59.20;;;14.51;65.53;94402.13;5011155;28;19909;-57
2023/10/28 08:36:11;;;;;;;;;;;20.90;59.40;;;14.76;63.92;94403.13;5009868;28;19909;-58
2023/10/28 08:38:37;;;;;;;;;;;21.20;58.60;;;15.01;62.82;94407.66;5010584;28;19948;-58
2023/10/28 08:41:05;;;;;;;;;;;21.50;58.20;;;15.29;60.90;94412.59;5010105;28;20402;-57
2023/10/28 08:43:37;;;;;;;;;;;21.80;57.90;;;15.54;63.10;94428.91;5003183;28;20313;-56
2023/10/28 08:46:04;;;;;;;;;;;22.10;57.70;;;15.73;59.73;94422.06;5011065;28;19917;-58
2023/10/28 08:48:33;;;;;;;;;;;22.40;57.30;;;15.96;58.13;94419.84;5006104;28;19917;-56
2023/10/28 08:51:02;;;;;;;;;;;22.60;57.00;;;16.17;57.19;94425.22;5008624;28;19974;-57
2023/10/28 08:53:29;;;;;;;;;;;22.90;56.70;;;16.36;58.26;94424.00;5009375;28;20375;-54
2023/10/28 08:55:58;;;;;;;;;;;23.10;56.20;;;16.54;56.20;94419.22;4986258;28;19913;-58
2023/10/28 08:58:25;;;;;;;;;;;23.30;55.80;;;16.44;55.34;94417.75;5006188;28;19913;-58
2023/10/28 09:00:54;;;;;;;;;;;23.40;55.20;;;16.61;54.89;94416.81;5009665;28;19999;-56
2023/10/28 09:03:22;;;;;;;;;;;23.50;54.90;;;16.75;54.85;94419.19;5010477;28;19916;-55
2023/10/28 09:05:53;;;;;;;;;;;23.60;54.50;;;16.61;55.05;94414.91;5007218;28;19920;-56
2023/10/28 09:08:26;;;;;;;;;;;23.60;54.00;;;16.82;53.76;94414.88;5010016;28;19916;-53
2023/10/28 09:10:53;;;;;;;;;;;23.70;54.40;;;16.82;53.21;94412.19;5010439;28;19913;-57
2023/10/28 09:13:18;;;;;;;;;;;23.80;54.10;;;16.79;53.10;94412.84;5010109;28;19909;-58
2023/10/28 09:15:46;;;;;;;;;;;23.80;52.80;;;16.81;53.46;94418.69;5010382;28;19949;-52
2023/10/28 09:18:11;;;;;;;;;;;23.90;52.50;;;16.93;54.86;94427.91;5007059;28;19909;-53
2023/10/28 09:20:38;;;;;;;;;;;23.90;52.50;;;16.90;55.62;94423.22;5005110;28;19932;-53
2023/10/28 09:23:04;;;;;;;;;;;24.00;52.00;;;17.16;53.82;94415.63;4996285;28;19909;-50
2023/10/28 09:25:30;;;;;;;;;;;24.20;52.20;;;17.39;55.12;94415.19;5004393;28;19913;-54
2023/10/28 09:27:57;;;;;;;;;;;24.30;52.10;;;17.03;52.88;94417.50;4998744;28;19909;-58
2023/10/28 09:30:23;;;;;;;;;;;24.40;50.90;;;17.18;53.00;94421.47;5001242;28;20000;-52
2023/10/28 09:32:52;;;;;;;;;;;24.50;50.40;;;17.45;53.96;94413.84;5000596;28;20003;-55
2023/10/28 09:35:17;;;;;;;;;;;24.50;51.00;;;17.62;54.11;94415.56;5000139;28;20007;-54
2023/10/28 09:37:44;;;;;;;;;;;24.70;50.40;;;17.51;50.72;94407.91;5002104;28;20482;-55
2023/10/28 09:40:12;;;;;;;;;;;24.80;50.00;;;17.48;52.24;94408.59;4996079;28;19909;-56
2023/10/28 09:42:39;;;;;;;;;;;24.80;49.40;;;17.66;52.92;94411.06;5003218;28;19917;-49
2023/10/28 09:45:09;;;;;;;;;;;24.90;49.50;;;17.49;51.01;94412.88;5009134;28;19958;-46
2023/10/28 09:47:58;;;;;;;;;;;25.00;49.10;;;17.54;52.33;94411.84;5000367;28;19944;-47
2023/10/28 09:50:27;;;;;;;;;;;25.00;48.40;;;17.91;52.08;94418.03;5007055;28;20070;-49
2023/10/28 09:52:56;;;;;;;;;;;25.10;48.70;;;18.11;50.67;94410.91;5012672;28;19924;-53
2023/10/28 09:55:34;;;;;;;;;;;25.30;48.70;;;17.99;51.01;94408.25;5008593;28;19909;-53
2023/10/28 09:58:28;;;;;;;;;;;25.40;48.10;;;18.35;49.96;94412.75;4999139;28;19956;-53
2023/10/28 10:01:42;;;;;;;;;;;25.60;48.20;;;18.45;51.33;94409.56;5001623;28;19966;-51
2023/10/28 10:04:27;;;;;;;;;;;25.80;47.90;;;18.37;51.11;94415.13;5005960;28;19967;-52
2023/10/28 10:06:53;;;;;;;;;;;25.90;47.80;;;18.68;47.23;94406.38;5007656;28;19923;-52
2023/10/28 10:09:19;;;;;;;;;;;26.10;47.80;;;18.70;46.19;94410.25;4999392;28;19910;-53
2023/10/28 10:11:45;;;;;;;;;;;26.30;47.60;;;18.45;48.60;94398.78;4999535;28;19909;-51
2023/10/28 10:14:13;;;;;;;;;;;26.40;47.40;;;18.63;47.78;94407.38;5002589;28;20411;-50
2023/10/28 10:16:53;;;;;;;;;;;26.70;47.30;;;18.42;46.80;94412.94;5005133;28;19920;-52
2023/10/28 10:19:33;;;;;;;;;;;26.80;46.40;;;18.47;46.50;94409.25;5001049;28;19932;-49
2023/10/28 10:22:03;;;;;;;;;;;26.70;45.40;;;18.76;45.31;94412.75;5003569;28;19916;-52
2023/10/28 10:24:29;;;;;;;;;;;26.80;45.10;;;18.64;45.96;94418.94;5004156;28;20062;-54
2023/10/28 10:27:00;;;;;;;;;;;26.80;44.60;;;18.95;45.44;94404.78;5001803;28;20020;-51
2023/10/28 10:29:38;;;;;;;;;;;26.80;44.70;;;18.92;46.28;94408.16;4998360;28;19944;-50
2023/10/28 10:32:19;;;;;;;;;;;27.00;44.30;;;19.30;46.49;94404.88;5006403;28;20441;-55
2023/10/28 10:34:45;;;;;;;;;;;27.10;44.20;;;19.45;45.55;94408.72;5001591;28;20004;-49
2023/10/28 10:37:25;;;;;;;;;;;27.20;43.90;;;19.65;44.73;94401.53;5000102;28;19910;-51
2023/10/28 10:39:57;;;;;;;;;;;27.40;44.10;;;19.47;43.35;94392.97;5004801;28;20000;-49
2023/10/28 10:42:25;;;;;;;;;;;27.50;43.50;;;18.84;43.73;94399.13;5007199;28;20387;-49
2023/10/28 10:44:53;;;;;;;;;;;27.60;42.80;;;18.89;43.63;94390.75;5006508;28;20426;-49
2023/10/28 10:47:21;;;;;;;;;;;27.70;42.70;;;19.06;45.80;94396.97;4999979;28;20299;-51
2023/10/28 10:49:49;;;;;;;;;;;27.80;42.50;;;19.01;43.87;94395.31;5009405;28;19909;-50
2023/10/28 10:52:15;;;;;;;;;;;27.80;42.30;;;18.65;44.16;94394.34;5010684;28;20315;-49
2023/10/28 10:54:40;;;;;;;;;;;27.50;42.10;;;18.71;47.57;94400.28;5001427;28;19909;-49
2023/10/28 10:57:10;;;;;;;;;;;27.20;42.20;;;18.75;45.78;94390.38;5008826;28;20391;-52
2023/10/28 10:59:41;;;;;;;;;;;27.00;42.50;;;18.63;46.46;94391.19;4997827;28;19909;-49
2023/10/28 11:02:10;;;;;;;;;;;26.60;42.50;;;18.23;45.95;94380.44;5007499;28;19955;-49
2023/10/28 11:04:36;;;;;;;;;;;26.30;42.30;;;17.74;46.63;94380.53;4997698;28;19913;-56
2023/10/28 11:07:03;;;;;;;;;;;25.80;41.80;;;17.75;47.59;94382.88;5005849;28;19999;-53
2023/10/28 11:09:32;;;;;;;;;;;25.50;41.90;;;17.54;46.91;94377.63;5003099;28;19909;-51
2023/10/28 11:11:58;;;;;;;;;;;25.30;41.80;;;17.82;47.35;94373.47;5007656;28;20272;-53
2023/10/28 11:14:24;;;;;;;;;;;25.50;41.80;;;17.72;49.95;94372.00;5001606;28;19917;-54
2023/10/28 11:16:50;;;;;;;;;;;25.50;41.10;;;18.03;48.46;94368.72;5001141;28;20023;-50
2023/10/28 11:19:18;;;;;;;;;;;25.50;41.10;;;18.08;46.37;94360.38;4999342;28;20279;-53